sensor_id;sensor_type;location;lat;lon;timestamp;pressure;altitude;pressure_sealevel;temperature;humidity
64616;BME280;51027;42.162;24.754;2023-08-06T03:30:22;98247.16;;;23.99;100.00
64616;BME280;51027;42.162;24.754;2023-08-06T03:32:47;98240.44;;;24.03;100.00
64616;BME280;51027;42.162;24.754;2023-08-06T03:35:13;98243.34;;;24.16;100.00
64616;BME280;51027;42.162;24.754;2023-08-06T03:37:38;98258.63;;;24.16;100.00
64616;BME280;51027;42.162;24.754;2023-08-06T03:40:04;98241.06;;;24.05;100.00
64616;BME280;51027;42.162;24.754;2023-08-06T03:42:30;98243.50;;;24.14;100.00
64616;BME280;51027;42.162;24.754;2023-08-06T03:44:55;98239.34;;;24.12;100.00
64616;BME280;51027;42.162;24.754;2023-08-06T03:47:20;98246.91;;;24.08;100.00
64616;BME280;51027;42.162;24.754;2023-08-06T03:49:46;98238.91;;;24.00;100.00
64616;BME280;51027;42.162;24.754;2023-08-06T03:52:11;98234.69;;;24.06;100.00
64616;BME280;51027;42.162;24.754;2023-08-06T03:54:37;98237.06;;;24.01;100.00
64616;BME280;51027;42.162;24.754;2023-08-06T03:57:02;98237.75;;;24.03;100.00
64616;BME280;51027;42.162;24.754;2023-08-06T03:59:28;98236.78;;;23.96;100.00
64616;BME280;51027;42.162;24.754;2023-08-06T04:01:53;98247.22;;;24.13;100.00
64616;BME280;51027;42.162;24.754;2023-08-06T04:04:19;98261.22;;;24.09;100.00
64616;BME280;51027;42.162;24.754;2023-08-06T04:06:44;98258.88;;;24.06;100.00
64616;BME280;51027;42.162;24.754;2023-08-06T04:09:10;98255.75;;;24.17;100.00
64616;BME280;51027;42.162;24.754;2023-08-06T04:11:35;98253.44;;;24.14;100.00
64616;BME280;51027;42.162;24.754;2023-08-06T04:14:00;98255.38;;;24.20;100.00
64616;BME280;51027;42.162;24.754;2023-08-06T04:16:26;98257.63;;;24.17;100.00
64616;BME280;51027;42.162;24.754;2023-08-06T04:18:51;98251.41;;;24.16;100.00
64616;BME280;51027;42.162;24.754;2023-08-06T04:21:18;98251.38;;;24.01;100.00
64616;BME280;51027;42.162;24.754;2023-08-06T04:23:44;98266.25;;;24.12;100.00
64616;BME280;51027;42.162;24.754;2023-08-06T04:26:09;98259.94;;;24.20;100.00
64616;BME280;51027;42.162;24.754;2023-08-06T04:28:34;98253.72;;;24.19;100.00
64616;BME280;51027;42.162;24.754;2023-08-06T04:31:00;98269.69;;;24.21;100.00
64616;BME280;51027;42.162;24.754;2023-08-06T04:33:25;98264.84;;;24.16;100.00
64616;BME280;51027;42.162;24.754;2023-08-06T04:35:54;98280.19;;;24.30;100.00
64616;BME280;51027;42.162;24.754;2023-08-06T04:38:21;98270.22;;;24.39;100.00
64616;BME280;51027;42.162;24.754;2023-08-06T04:40:46;98274.50;;;24.48;100.00
64616;BME280;51027;42.162;24.754;2023-08-06T04:43:11;98248.88;;;24.37;100.00
64616;BME280;51027;42.162;24.754;2023-08-06T04:45:37;98254.66;;;24.49;100.00
64616;BME280;51027;42.162;24.754;2023-08-06T04:48:02;98258.72;;;24.45;100.00
64616;BME280;51027;42.162;24.754;2023-08-06T04:50:27;98254.03;;;24.24;100.00
64616;BME280;51027;42.162;24.754;2023-08-06T04:52:53;98271.13;;;24.31;100.00
64616;BME280;51027;42.162;24.754;2023-08-06T04:55:18;98279.69;;;24.35;100.00
64616;BME280;51027;42.162;24.754;2023-08-06T04:57:44;98278.09;;;24.40;100.00
64616;BME280;51027;42.162;24.754;2023-08-06T05:00:10;98262.19;;;24.54;100.00
64616;BME280;51027;42.162;24.754;2023-08-06T05:02:36;98259.69;;;24.52;100.00
64616;BME280;51027;42.162;24.754;2023-08-06T05:05:04;98267.53;;;24.39;100.00
64616;BME280;51027;42.162;24.754;2023-08-06T05:07:29;98275.16;;;24.35;100.00
64616;BME280;51027;42.162;24.754;2023-08-06T05:09:55;98270.22;;;24.39;100.00
64616;BME280;51027;42.162;24.754;2023-08-06T05:12:20;98268.47;;;24.46;100.00
64616;BME280;51027;42.162;24.754;2023-08-06T05:14:45;98262.34;;;24.37;100.00
64616;BME280;51027;42.162;24.754;2023-08-06T05:17:11;98269.00;;;24.41;100.00
64616;BME280;51027;42.162;24.754;2023-08-06T05:19:36;98250.28;;;24.48;100.00
64616;BME280;51027;42.162;24.754;2023-08-06T05:22:02;98263.59;;;24.64;100.00
64616;BME280;51027;42.162;24.754;2023-08-06T05:24:27;98271.03;;;24.62;100.00
64616;BME280;51027;42.162;24.754;2023-08-06T05:26:52;98263.16;;;24.38;100.00
64616;BME280;51027;42.162;24.754;2023-08-06T05:29:18;98285.72;;;24.37;100.00
64616;BME280;51027;42.162;24.754;2023-08-06T05:31:43;98273.56;;;24.41;100.00
64616;BME280;51027;42.162;24.754;2023-08-06T05:34:09;98265.91;;;24.53;100.00
64616;BME280;51027;42.162;24.754;2023-08-06T05:36:34;98261.50;;;24.52;100.00
64616;BME280;51027;42.162;24.754;2023-08-06T05:39:00;98250.53;;;24.38;100.00
64616;BME280;51027;42.162;24.754;2023-08-06T05:41:25;98251.59;;;24.29;100.00
64616;BME280;51027;42.162;24.754;2023-08-06T05:43:50;98270.28;;;24.08;100.00
64616;BME280;51027;42.162;24.754;2023-08-06T05:46:16;98261.63;;;23.98;100.00
64616;BME280;51027;42.162;24.754;2023-08-06T05:48:41;98245.53;;;23.44;100.00
64616;BME280;51027;42.162;24.754;2023-08-06T05:51:07;98244.94;;;23.56;100.00
64616;BME280;51027;42.162;24.754;2023-08-06T05:53:33;98250.66;;;23.62;100.00
64616;BME280;51027;42.162;24.754;2023-08-06T05:55:58;98245.91;;;23.02;100.00
64616;BME280;51027;42.162;24.754;2023-08-06T05:58:23;98230.41;;;22.64;100.00
64616;BME280;51027;42.162;24.754;2023-08-06T06:00:51;98236.38;;;22.99;100.00
64616;BME280;51027;42.162;24.754;2023-08-06T06:03:16;98250.56;;;23.08;100.00
64616;BME280;51027;42.162;24.754;2023-08-06T06:05:42;98259.84;;;22.97;100.00
64616;BME280;51027;42.162;24.754;2023-08-06T06:08:07;98274.28;;;22.96;100.00
64616;BME280;51027;42.162;24.754;2023-08-06T06:10:33;98261.69;;;22.96;100.00
64616;BME280;51027;42.162;24.754;2023-08-06T06:12:58;98238.19;;;22.98;100.00
64616;BME280;51027;42.162;24.754;2023-08-06T06:15:23;98238.91;;;22.84;100.00
64616;BME280;51027;42.162;24.754;2023-08-06T06:17:49;98245.16;;;22.68;100.00
64616;BME280;51027;42.162;24.754;2023-08-06T06:20:14;98235.38;;;22.76;100.00
64616;BME280;51027;42.162;24.754;2023-08-06T06:22:39;98223.19;;;22.57;100.00
64616;BME280;51027;42.162;24.754;2023-08-06T06:25:05;98246.84;;;22.69;100.00
64616;BME280;51027;42.162;24.754;2023-08-06T06:27:31;98251.38;;;22.61;100.00
64616;BME280;51027;42.162;24.754;2023-08-06T06:29:56;98247.13;;;22.83;100.00
64616;BME280;51027;42.162;24.754;2023-08-06T06:32:22;98255.34;;;22.81;100.00
64616;BME280;51027;42.162;24.754;2023-08-06T06:34:47;98250.19;;;22.63;100.00
64616;BME280;51027;42.162;24.754;2023-08-06T06:37:13;98258.06;;;22.73;100.00
64616;BME280;51027;42.162;24.754;2023-08-06T06:39:38;98262.28;;;22.59;100.00
64616;BME280;51027;42.162;24.754;2023-08-06T06:42:04;98272.88;;;22.53;100.00
64616;BME280;51027;42.162;24.754;2023-08-06T06:44:30;98263.59;;;22.80;100.00
64616;BME280;51027;42.162;24.754;2023-08-06T06:46:55;98245.97;;;22.85;100.00
64616;BME280;51027;42.162;24.754;2023-08-06T06:49:20;98252.69;;;22.73;100.00
64616;BME280;51027;42.162;24.754;2023-08-06T06:51:46;98250.00;;;22.73;100.00
64616;BME280;51027;42.162;24.754;2023-08-06T06:54:11;98244.28;;;22.84;100.00
64616;BME280;51027;42.162;24.754;2023-08-06T06:56:37;98256.94;;;22.59;100.00
64616;BME280;51027;42.162;24.754;2023-08-06T06:59:02;98261.56;;;22.90;100.00
64616;BME280;51027;42.162;24.754;2023-08-06T07:01:27;98257.50;;;22.94;100.00
64616;BME280;51027;42.162;24.754;2023-08-06T07:03:53;98247.59;;;23.03;100.00
64616;BME280;51027;42.162;24.754;2023-08-06T07:06:18;98267.50;;;23.16;100.00
64616;BME280;51027;42.162;24.754;2023-08-06T07:08:44;98268.91;;;22.96;100.00
64616;BME280;51027;42.162;24.754;2023-08-06T07:11:10;98275.25;;;23.11;100.00
64616;BME280;51027;42.162;24.754;2023-08-06T07:13:35;98288.75;;;23.26;100.00
64616;BME280;51027;42.162;24.754;2023-08-06T07:16:01;98285.09;;;23.50;100.00
64616;BME280;51027;42.162;24.754;2023-08-06T07:18:26;98283.44;;;23.49;100.00
64616;BME280;51027;42.162;24.754;2023-08-06T07:20:53;98287.56;;;23.68;100.00
64616;BME280;51027;42.162;24.754;2023-08-06T07:23:23;98284.53;;;23.71;100.00
64616;BME280;51027;42.162;24.754;2023-08-06T07:25:49;98286.97;;;23.80;100.00
64616;BME280;51027;42.162;24.754;2023-08-06T07:28:15;98269.47;;;23.53;100.00
64616;BME280;51027;42.162;24.754;2023-08-06T07:30:42;98300.72;;;23.63;100.00
64616;BME280;51027;42.162;24.754;2023-08-06T07:33:08;98322.28;;;23.38;100.00
64616;BME280;51027;42.162;24.754;2023-08-06T07:35:34;98316.97;;;23.30;100.00
64616;BME280;51027;42.162;24.754;2023-08-06T07:37:59;98301.94;;;23.44;100.00
64616;BME280;51027;42.162;24.754;2023-08-06T07:40:25;98293.72;;;23.76;100.00
64616;BME280;51027;42.162;24.754;2023-08-06T07:42:50;98286.03;;;23.96;100.00
64616;BME280;51027;42.162;24.754;2023-08-06T07:45:16;98246.00;;;24.01;100.00
64616;BME280;51027;42.162;24.754;2023-08-06T07:47:41;98281.66;;;24.18;100.00
64616;BME280;51027;42.162;24.754;2023-08-06T07:50:08;98284.53;;;24.17;100.00
64616;BME280;51027;42.162;24.754;2023-08-06T07:52:33;98284.81;;;23.76;100.00
64616;BME280;51027;42.162;24.754;2023-08-06T07:54:59;98302.19;;;23.65;100.00
64616;BME280;51027;42.162;24.754;2023-08-06T07:57:26;98291.03;;;23.99;100.00
64616;BME280;51027;42.162;24.754;2023-08-06T07:59:52;98294.75;;;23.98;100.00
64616;BME280;51027;42.162;24.754;2023-08-06T08:02:19;98306.28;;;24.07;100.00
64616;BME280;51027;42.162;24.754;2023-08-06T08:04:44;98304.56;;;23.91;100.00
64616;BME280;51027;42.162;24.754;2023-08-06T08:07:12;98300.00;;;23.69;100.00
64616;BME280;51027;42.162;24.754;2023-08-06T08:09:38;98320.84;;;23.90;100.00
64616;BME280;51027;42.162;24.754;2023-08-06T08:12:04;98311.47;;;23.85;100.00
64616;BME280;51027;42.162;24.754;2023-08-06T08:14:29;98292.59;;;23.71;100.00
64616;BME280;51027;42.162;24.754;2023-08-06T08:17:01;98301.94;;;23.83;100.00
64616;BME280;51027;42.162;24.754;2023-08-06T08:19:26;98320.63;;;23.99;100.00
64616;BME280;51027;42.162;24.754;2023-08-06T08:21:51;98321.25;;;24.32;100.00
64616;BME280;51027;42.162;24.754;2023-08-06T08:24:17;98311.09;;;24.72;100.00
64616;BME280;51027;42.162;24.754;2023-08-06T08:26:44;98311.06;;;24.20;100.00
64616;BME280;51027;42.162;24.754;2023-08-06T08:29:10;98310.38;;;24.03;100.00
64616;BME280;51027;42.162;24.754;2023-08-06T08:31:35;98314.72;;;23.81;100.00
64616;BME280;51027;42.162;24.754;2023-08-06T08:34:05;98315.59;;;23.73;100.00
64616;BME280;51027;42.162;24.754;2023-08-06T08:36:30;98299.00;;;23.93;100.00
64616;BME280;51027;42.162;24.754;2023-08-06T08:38:56;98300.63;;;24.02;100.00
64616;BME280;51027;42.162;24.754;2023-08-06T08:41:21;98295.75;;;23.97;100.00
64616;BME280;51027;42.162;24.754;2023-08-06T08:43:49;98299.28;;;23.98;100.00
64616;BME280;51027;42.162;24.754;2023-08-06T08:46:18;98292.72;;;23.77;100.00
64616;BME280;51027;42.162;24.754;2023-08-06T08:48:43;98303.22;;;23.87;100.00
64616;BME280;51027;42.162;24.754;2023-08-06T08:51:10;98290.03;;;23.77;100.00
64616;BME280;51027;42.162;24.754;2023-08-06T08:53:37;98308.78;;;23.85;100.00
64616;BME280;51027;42.162;24.754;2023-08-06T08:56:05;98307.84;;;24.01;100.00
64616;BME280;51027;42.162;24.754;2023-08-06T08:58:31;98300.28;;;24.20;100.00
64616;BME280;51027;42.162;24.754;2023-08-06T09:00:57;98306.03;;;24.39;100.00
64616;BME280;51027;42.162;24.754;2023-08-06T09:03:23;98303.66;;;24.45;100.00
64616;BME280;51027;42.162;24.754;2023-08-06T09:05:52;98290.31;;;24.66;100.00
64616;BME280;51027;42.162;24.754;2023-08-06T09:08:18;98285.03;;;25.32;100.00
64616;BME280;51027;42.162;24.754;2023-08-06T09:10:48;98262.38;;;25.98;100.00
64616;BME280;51027;42.162;24.754;2023-08-06T09:13:13;98257.97;;;26.19;100.00
64616;BME280;51027;42.162;24.754;2023-08-06T09:15:39;98250.25;;;26.16;100.00
64616;BME280;51027;42.162;24.754;2023-08-06T09:18:11;98265.28;;;26.46;100.00
64616;BME280;51027;42.162;24.754;2023-08-06T09:20:40;98269.44;;;26.77;100.00
64616;BME280;51027;42.162;24.754;2023-08-06T09:23:09;98277.66;;;26.62;100.00
64616;BME280;51027;42.162;24.754;2023-08-06T09:25:38;98262.69;;;27.35;100.00
64616;BME280;51027;42.162;24.754;2023-08-06T09:28:04;98257.84;;;27.78;100.00
64616;BME280;51027;42.162;24.754;2023-08-06T09:30:31;98265.78;;;27.87;100.00
64616;BME280;51027;42.162;24.754;2023-08-06T09:32:57;98254.31;;;27.71;100.00
64616;BME280;51027;42.162;24.754;2023-08-06T09:35:23;98269.13;;;27.89;100.00
64616;BME280;51027;42.162;24.754;2023-08-06T09:37:48;98263.72;;;27.95;100.00
64616;BME280;51027;42.162;24.754;2023-08-06T09:40:31;98264.41;;;28.37;100.00
64616;BME280;51027;42.162;24.754;2023-08-06T09:42:57;98263.94;;;28.07;100.00
64616;BME280;51027;42.162;24.754;2023-08-06T09:45:28;98260.56;;;27.78;100.00
64616;BME280;51027;42.162;24.754;2023-08-06T09:47:56;98249.31;;;27.75;100.00
64616;BME280;51027;42.162;24.754;2023-08-06T09:50:21;98254.16;;;27.93;98.19
64616;BME280;51027;42.162;24.754;2023-08-06T09:52:47;98253.38;;;28.32;91.77
64616;BME280;51027;42.162;24.754;2023-08-06T09:55:14;98248.75;;;28.72;80.39
64616;BME280;51027;42.162;24.754;2023-08-06T09:57:41;98237.47;;;28.88;69.41
64616;BME280;51027;42.162;24.754;2023-08-06T10:00:11;98243.09;;;28.93;66.99
64616;BME280;51027;42.162;24.754;2023-08-06T10:02:40;98243.91;;;28.81;66.94
64616;BME280;51027;42.162;24.754;2023-08-06T10:05:06;98249.13;;;28.95;64.92
64616;BME280;51027;42.162;24.754;2023-08-06T10:07:33;98247.84;;;29.05;65.64
64616;BME280;51027;42.162;24.754;2023-08-06T10:09:59;98255.19;;;28.91;64.78
64616;BME280;51027;42.162;24.754;2023-08-06T10:12:26;98236.66;;;28.75;64.36
64616;BME280;51027;42.162;24.754;2023-08-06T10:14:55;98234.75;;;28.95;64.33
64616;BME280;51027;42.162;24.754;2023-08-06T10:17:22;98227.69;;;29.32;62.63
64616;BME280;51027;42.162;24.754;2023-08-06T10:19:49;98211.13;;;29.09;63.76
64616;BME280;51027;42.162;24.754;2023-08-06T10:22:16;98203.09;;;29.34;62.51
64616;BME280;51027;42.162;24.754;2023-08-06T10:24:52;98218.19;;;29.61;61.98
64616;BME280;51027;42.162;24.754;2023-08-06T10:27:34;98222.31;;;29.70;59.89
64616;BME280;51027;42.162;24.754;2023-08-06T10:30:22;98220.88;;;29.68;56.81
64616;BME280;51027;42.162;24.754;2023-08-06T10:32:50;98218.28;;;29.79;56.57
64616;BME280;51027;42.162;24.754;2023-08-06T10:37:53;98208.09;;;29.75;54.39
64616;BME280;51027;42.162;24.754;2023-08-06T10:40:21;98210.69;;;29.63;54.53
64616;BME280;51027;42.162;24.754;2023-08-06T10:42:46;98200.38;;;29.72;54.26
64616;BME280;51027;42.162;24.754;2023-08-06T10:45:16;98214.09;;;29.45;54.64
64616;BME280;51027;42.162;24.754;2023-08-06T10:47:45;98211.63;;;29.75;54.27
64616;BME280;51027;42.162;24.754;2023-08-06T10:50:13;98209.63;;;30.46;53.27
64616;BME280;51027;42.162;24.754;2023-08-06T10:52:45;98219.50;;;29.52;53.69
64616;BME280;51027;42.162;24.754;2023-08-06T10:55:11;98216.41;;;30.11;54.13
64616;BME280;51027;42.162;24.754;2023-08-06T10:57:37;98226.63;;;30.16;51.97
64616;BME280;51027;42.162;24.754;2023-08-06T11:00:05;98229.53;;;30.39;50.83
64616;BME280;51027;42.162;24.754;2023-08-06T11:02:35;98236.84;;;29.82;52.27
64616;BME280;51027;42.162;24.754;2023-08-06T11:05:08;98226.41;;;30.61;51.01
64616;BME280;51027;42.162;24.754;2023-08-06T11:07:34;98217.16;;;30.44;48.82
64616;BME280;51027;42.162;24.754;2023-08-06T11:10:08;98227.59;;;30.22;48.35
64616;BME280;51027;42.162;24.754;2023-08-06T11:12:34;98218.63;;;30.46;49.32
64616;BME280;51027;42.162;24.754;2023-08-06T11:15:02;98226.16;;;30.69;46.78
64616;BME280;51027;42.162;24.754;2023-08-06T11:17:29;98220.78;;;30.99;46.50
64616;BME280;51027;42.162;24.754;2023-08-06T11:19:55;98236.97;;;31.31;45.43
64616;BME280;51027;42.162;24.754;2023-08-06T11:22:22;98235.91;;;31.32;45.10
64616;BME280;51027;42.162;24.754;2023-08-06T11:24:48;98225.94;;;30.89;44.99
64616;BME280;51027;42.162;24.754;2023-08-06T11:27:14;98242.25;;;31.25;44.94
64616;BME280;51027;42.162;24.754;2023-08-06T11:29:41;98226.84;;;31.01;45.48
64616;BME280;51027;42.162;24.754;2023-08-06T11:32:10;98223.44;;;30.69;45.88
64616;BME280;51027;42.162;24.754;2023-08-06T11:34:36;98236.97;;;31.31;44.58
64616;BME280;51027;42.162;24.754;2023-08-06T11:37:05;98232.44;;;31.24;44.46
64616;BME280;51027;42.162;24.754;2023-08-06T11:39:35;98228.34;;;30.79;45.50
64616;BME280;51027;42.162;24.754;2023-08-06T11:42:03;98217.00;;;31.18;45.26
64616;BME280;51027;42.162;24.754;2023-08-06T11:44:35;98220.84;;;31.47;43.82
64616;BME280;51027;42.162;24.754;2023-08-06T11:47:02;98229.47;;;31.26;44.68
64616;BME280;51027;42.162;24.754;2023-08-06T11:49:45;98218.84;;;31.54;44.48
64616;BME280;51027;42.162;24.754;2023-08-06T11:52:23;98209.94;;;31.77;44.37
64616;BME280;51027;42.162;24.754;2023-08-06T11:55:06;98224.00;;;32.04;43.00
64616;BME280;51027;42.162;24.754;2023-08-06T11:57:34;98224.34;;;32.08;43.08
64616;BME280;51027;42.162;24.754;2023-08-06T12:00:09;98225.38;;;31.84;41.57
64616;BME280;51027;42.162;24.754;2023-08-06T12:02:35;98235.94;;;31.62;41.03
64616;BME280;51027;42.162;24.754;2023-08-06T12:05:20;98251.34;;;31.38;41.44
64616;BME280;51027;42.162;24.754;2023-08-06T12:07:52;98244.22;;;30.57;42.69
64616;BME280;51027;42.162;24.754;2023-08-06T12:10:19;98250.47;;;30.82;42.27
64616;BME280;51027;42.162;24.754;2023-08-06T12:12:45;98231.44;;;30.82;41.38
64616;BME280;51027;42.162;24.754;2023-08-06T12:15:11;98240.38;;;31.26;41.20
64616;BME280;51027;42.162;24.754;2023-08-06T12:17:37;98249.66;;;31.18;41.68
64616;BME280;51027;42.162;24.754;2023-08-06T12:20:04;98243.91;;;31.08;42.22
64616;BME280;51027;42.162;24.754;2023-08-06T12:22:30;98253.75;;;31.09;42.46
64616;BME280;51027;42.162;24.754;2023-08-06T12:25:00;98230.47;;;31.32;40.69
64616;BME280;51027;42.162;24.754;2023-08-06T12:27:25;98226.44;;;31.83;40.39
64616;BME280;51027;42.162;24.754;2023-08-06T12:29:51;98230.06;;;31.76;40.36
64616;BME280;51027;42.162;24.754;2023-08-06T12:32:17;98219.13;;;31.95;40.11
64616;BME280;51027;42.162;24.754;2023-08-06T12:34:42;98217.78;;;31.07;41.57
64616;BME280;51027;42.162;24.754;2023-08-06T12:37:08;98231.97;;;30.73;41.68
64616;BME280;51027;42.162;24.754;2023-08-06T12:39:37;98234.25;;;30.51;40.52
64616;BME280;51027;42.162;24.754;2023-08-06T12:42:04;98226.97;;;30.45;40.85
64616;BME280;51027;42.162;24.754;2023-08-06T12:44:29;98235.97;;;30.45;41.38
64616;BME280;51027;42.162;24.754;2023-08-06T12:46:55;98232.28;;;31.01;40.99
64616;BME280;51027;42.162;24.754;2023-08-06T12:49:21;98230.53;;;31.43;40.95
64616;BME280;51027;42.162;24.754;2023-08-06T12:51:48;98224.53;;;31.83;40.87
64616;BME280;51027;42.162;24.754;2023-08-06T12:54:14;98221.34;;;31.56;40.00
64616;BME280;51027;42.162;24.754;2023-08-06T12:56:39;98231.38;;;32.27;39.75
64616;BME280;51027;42.162;24.754;2023-08-06T12:59:04;98235.81;;;32.40;39.23
64616;BME280;51027;42.162;24.754;2023-08-06T13:01:30;98235.47;;;31.65;39.44
64616;BME280;51027;42.162;24.754;2023-08-06T13:03:55;98236.28;;;31.65;40.28
64616;BME280;51027;42.162;24.754;2023-08-06T13:06:20;98239.59;;;31.97;39.83
64616;BME280;51027;42.162;24.754;2023-08-06T13:08:46;98240.78;;;31.90;39.90
64616;BME280;51027;42.162;24.754;2023-08-06T13:11:11;98260.06;;;30.85;39.76
64616;BME280;51027;42.162;24.754;2023-08-06T13:13:37;98238.94;;;30.62;40.78
64616;BME280;51027;42.162;24.754;2023-08-06T13:16:03;98247.06;;;30.68;40.59
64616;BME280;51027;42.162;24.754;2023-08-06T13:18:28;98234.59;;;30.54;41.15
64616;BME280;51027;42.162;24.754;2023-08-06T13:20:54;98247.72;;;30.39;40.25
64616;BME280;51027;42.162;24.754;2023-08-06T13:23:20;98231.66;;;30.37;40.02
64616;BME280;51027;42.162;24.754;2023-08-06T13:25:45;98237.88;;;30.63;40.13
64616;BME280;51027;42.162;24.754;2023-08-06T13:28:11;98230.69;;;30.50;40.31
64616;BME280;51027;42.162;24.754;2023-08-06T13:30:37;98239.31;;;30.47;40.11
64616;BME280;51027;42.162;24.754;2023-08-06T13:33:07;98237.50;;;30.59;40.80
64616;BME280;51027;42.162;24.754;2023-08-06T13:35:33;98228.47;;;30.40;40.35
64616;BME280;51027;42.162;24.754;2023-08-06T13:37:59;98238.19;;;30.98;39.69
64616;BME280;51027;42.162;24.754;2023-08-06T13:40:24;98225.78;;;30.65;39.28
64616;BME280;51027;42.162;24.754;2023-08-06T13:42:50;98231.53;;;30.51;40.40
64616;BME280;51027;42.162;24.754;2023-08-06T13:45:15;98240.69;;;30.56;39.31
64616;BME280;51027;42.162;24.754;2023-08-06T13:47:41;98251.59;;;30.75;38.23
64616;BME280;51027;42.162;24.754;2023-08-06T13:50:07;98252.28;;;30.70;37.82
64616;BME280;51027;42.162;24.754;2023-08-06T13:52:33;98251.34;;;31.38;36.61
64616;BME280;51027;42.162;24.754;2023-08-06T13:55:00;98254.16;;;31.79;37.18
64616;BME280;51027;42.162;24.754;2023-08-06T13:57:25;98247.78;;;31.97;35.60
64616;BME280;51027;42.162;24.754;2023-08-06T13:59:51;98250.28;;;31.69;34.97
64616;BME280;51027;42.162;24.754;2023-08-06T14:02:16;98246.75;;;32.10;36.28
64616;BME280;51027;42.162;24.754;2023-08-06T14:04:42;98258.38;;;32.17;35.66
64616;BME280;51027;42.162;24.754;2023-08-06T14:07:07;98268.31;;;31.51;35.14
64616;BME280;51027;42.162;24.754;2023-08-06T14:09:33;98242.47;;;31.42;35.39
64616;BME280;51027;42.162;24.754;2023-08-06T14:11:59;98265.38;;;31.83;34.85
64616;BME280;51027;42.162;24.754;2023-08-06T14:14:25;98268.97;;;31.95;34.46
64616;BME280;51027;42.162;24.754;2023-08-06T14:16:52;98268.31;;;31.51;35.24
64616;BME280;51027;42.162;24.754;2023-08-06T14:19:19;98270.78;;;30.80;36.67
64616;BME280;51027;42.162;24.754;2023-08-06T14:21:44;98275.41;;;31.16;37.19
64616;BME280;51027;42.162;24.754;2023-08-06T14:24:10;98266.25;;;31.47;36.39
64616;BME280;51027;42.162;24.754;2023-08-06T14:26:35;98273.97;;;31.13;36.53
64616;BME280;51027;42.162;24.754;2023-08-06T14:29:01;98240.59;;;31.24;36.25
64616;BME280;51027;42.162;24.754;2023-08-06T14:31:26;98268.31;;;31.33;36.08
64616;BME280;51027;42.162;24.754;2023-08-06T14:33:52;98284.94;;;31.43;36.67
64616;BME280;51027;42.162;24.754;2023-08-06T14:36:18;98275.66;;;31.33;36.39
64616;BME280;51027;42.162;24.754;2023-08-06T14:38:43;98287.00;;;31.48;36.72
64616;BME280;51027;42.162;24.754;2023-08-06T14:41:09;98276.69;;;31.13;36.49
64616;BME280;51027;42.162;24.754;2023-08-06T14:43:34;98266.34;;;31.59;36.89
64616;BME280;51027;42.162;24.754;2023-08-06T14:46:00;98288.72;;;31.42;36.32
64616;BME280;51027;42.162;24.754;2023-08-06T14:48:25;98287.41;;;31.63;36.63
64616;BME280;51027;42.162;24.754;2023-08-06T14:50:51;98295.72;;;31.13;37.28
64616;BME280;51027;42.162;24.754;2023-08-06T14:53:16;98308.31;;;31.51;37.01
64616;BME280;51027;42.162;24.754;2023-08-06T14:55:42;98294.53;;;31.46;37.86
64616;BME280;51027;42.162;24.754;2023-08-06T14:58:07;98292.94;;;31.75;37.55
64616;BME280;51027;42.162;24.754;2023-08-06T15:00:32;98292.50;;;31.60;37.46
64616;BME280;51027;42.162;24.754;2023-08-06T15:02:58;98297.16;;;31.16;37.19
64616;BME280;51027;42.162;24.754;2023-08-06T15:05:24;98298.19;;;30.78;38.15
64616;BME280;51027;42.162;24.754;2023-08-06T15:07:50;98287.41;;;30.90;38.20
64616;BME280;51027;42.162;24.754;2023-08-06T15:10:17;98297.91;;;31.05;38.03
64616;BME280;51027;42.162;24.754;2023-08-06T15:12:43;98297.38;;;31.21;37.63
64616;BME280;51027;42.162;24.754;2023-08-06T15:15:09;98312.09;;;31.32;37.20
64616;BME280;51027;42.162;24.754;2023-08-06T15:17:35;98297.66;;;31.31;37.32
64616;BME280;51027;42.162;24.754;2023-08-06T15:20:00;98285.25;;;31.35;36.69
64616;BME280;51027;42.162;24.754;2023-08-06T15:22:26;98296.06;;;31.23;36.03
64616;BME280;51027;42.162;24.754;2023-08-06T15:24:52;98296.66;;;31.44;35.23
64616;BME280;51027;42.162;24.754;2023-08-06T15:27:17;98296.56;;;31.14;35.21
64616;BME280;51027;42.162;24.754;2023-08-06T15:29:43;98293.88;;;31.32;35.60
64616;BME280;51027;42.162;24.754;2023-08-06T15:32:09;98290.59;;;30.87;35.65
64616;BME280;51027;42.162;24.754;2023-08-06T15:34:35;98299.81;;;31.04;36.68
64616;BME280;51027;42.162;24.754;2023-08-06T15:37:00;98289.00;;;31.16;35.71
64616;BME280;51027;42.162;24.754;2023-08-06T15:39:26;98294.63;;;31.21;35.87
64616;BME280;51027;42.162;24.754;2023-08-06T15:41:51;98295.91;;;31.37;35.87
64616;BME280;51027;42.162;24.754;2023-08-06T15:44:17;98302.16;;;31.19;35.04
64616;BME280;51027;42.162;24.754;2023-08-06T15:46:42;98299.50;;;30.94;35.25
64616;BME280;51027;42.162;24.754;2023-08-06T15:49:08;98300.56;;;30.93;36.10
64616;BME280;51027;42.162;24.754;2023-08-06T15:51:33;98307.53;;;31.07;35.93
64616;BME280;51027;42.162;24.754;2023-08-06T15:53:59;98300.22;;;31.08;35.95
64616;BME280;51027;42.162;24.754;2023-08-06T15:56:25;98307.78;;;30.81;35.61
64616;BME280;51027;42.162;24.754;2023-08-06T15:58:50;98315.16;;;30.99;35.51
64616;BME280;51027;42.162;24.754;2023-08-06T16:01:15;98316.75;;;31.06;36.14
64616;BME280;51027;42.162;24.754;2023-08-06T16:03:41;98321.34;;;31.06;35.87
64616;BME280;51027;42.162;24.754;2023-08-06T16:06:10;98315.28;;;31.04;36.10
64616;BME280;51027;42.162;24.754;2023-08-06T16:08:36;98314.53;;;31.15;36.07
64616;BME280;51027;42.162;24.754;2023-08-06T16:11:02;98299.66;;;30.99;36.58
64616;BME280;51027;42.162;24.754;2023-08-06T16:13:29;98297.59;;;30.76;37.18